Clupea (Germany) — DBFN — position and weather

sailwx.info

Track history (hours):
 
Tides and Currents Weather Stations Pressure Air Temp Water Temp Dewpoint Dewpoint Depression Visibility Wind Speed Wind Dir Waves Ship Positions

Oceanographic research ship Clupea (Germany) (Germany)

Detailed information on ship capabilities available from University of Delaware's Ocean Information Center.

Last reported at 2019-Jul-26 09:00 UTC. Time now 2019-Aug-24 23:11 UTC.
Position N 54°04' E 011°19'.
Warning: this ship's position is 29 days out of date.

Length 17.6 m; beam 5.1 m; draft 2 m.

Type: Dredging. MMSI: 211586760.

Date/timePositionNaut miles runAvg speedWind from/ knotsBaromVisibWave heightAir tempDewpointWater temp
2019-Jul-26 09:00N 54°04' E 011°19'3 5.3
2019-Jul-26 08:30N 54°03' E 011°15'0 0.8
2019-Jul-26 07:58N 54°02' E 011°14'3 3.8
2019-Jul-26 07:18N 54°02' E 011°19'2 8.4
2019-Jul-26 07:00N 53°60' E 011°20'4 8.1
2019-Jul-26 06:30N 53°57' E 011°25'3 6.1
2019-Jul-26 06:00N 53°54' E 011°27'0 0.0
2019-Jul-26 05:30N 53°54' E 011°27'0 0.0
2019-Jul-26 05:00N 53°54' E 011°27'0 0.0
2019-Jul-26 04:29N 53°54' E 011°27'0 0.0
2019-Jul-26 03:56N 53°54' E 011°27'0 0.0
2019-Jul-26 03:30N 53°54' E 011°27'0 0.0
2019-Jul-26 03:00N 53°54' E 011°27'0 0.0
2019-Jul-26 02:00N 53°54' E 011°27'0 0.0
2019-Jul-26 01:29N 53°54' E 011°27'0 0.0
2019-Jul-26 01:00N 53°54' E 011°27'0 0.0
2019-Jul-26 00:30N 53°54' E 011°27'0 0.0
2019-Jul-26 00:00N 53°54' E 011°27'0 0.0
2019-Jul-25 23:30N 53°54' E 011°27'0 0.0
2019-Jul-25 23:00N 53°54' E 011°27'0 0.0
2019-Jul-25 22:30N 53°54' E 011°27'0 0.0
2019-Jul-25 22:00N 53°54' E 011°27'0 0.0
2019-Jul-25 21:27N 53°54' E 011°27'0 0.0
2019-Jul-25 20:57N 53°54' E 011°27'0 0.0
2019-Jul-25 20:30N 53°54' E 011°27'0 0.0
2019-Jul-25 20:00N 53°54' E 011°27'0 0.0
2019-Jul-25 19:30N 53°54' E 011°27'0 0.0
2019-Jul-25 19:00N 53°54' E 011°27'0 0.0
2019-Jul-25 18:23N 53°54' E 011°27'0 0.0
2019-Jul-25 17:44N 53°54' E 011°27'0 0.0
2019-Jul-25 17:30N 53°54' E 011°27'0 0.7
2019-Jul-25 17:00N 53°54' E 011°27'3 5.5
2019-Jul-25 16:30N 53°56' E 011°25'5 7.4
2019-Jul-25 15:53N 54°01' E 011°22'4 9.4
2019-Jul-25 15:29N 54°04' E 011°26'0 0.8
2019-Jul-25 15:00N 54°04' E 011°27'1 2.3
2019-Jul-25 14:30N 54°03' E 011°25'1 2.3
2019-Jul-25 14:00N 54°02' E 011°24'0 1.0
2019-Jul-25 13:30N 54°02' E 011°23'1 1.6
2019-Jul-25 13:00N 54°01' E 011°22'0 1.0
2019-Jul-25 12:30N 54°01' E 011°21'0 0.6
2019-Jul-25 12:00N 54°01' E 011°21'1 1.6
2019-Jul-25 11:30N 54°01' E 011°20'1 1.0
2019-Jul-25 11:00N 54°01' E 011°20'1 1.3
2019-Jul-25 10:30N 54°00' E 011°20'1 1.4
2019-Jul-25 09:59N 53°60' E 011°19'1 2.5
2019-Jul-25 09:30N 53°59' E 011°20'0 0.6
2019-Jul-25 09:00N 53°59' E 011°20'3 5.4
2019-Jul-25 08:30N 53°57' E 011°24'4 7.9
2019-Jul-25 08:00N 53°54' E 011°27'0 0.1
2019-Jul-25 07:30N 53°54' E 011°28'0 0.0
2019-Jul-25 07:00N 53°54' E 011°28'0 0.0
2019-Jul-25 06:30N 53°54' E 011°28'0 0.0
2019-Jul-25 06:00N 53°54' E 011°28'0 0.0
2019-Jul-25 05:30N 53°54' E 011°28'0 0.0
2019-Jul-25 05:00N 53°54' E 011°28'0 0.0
2019-Jul-25 04:30N 53°54' E 011°28'0 0.0
2019-Jul-25 04:00N 53°54' E 011°28'0 0.0
2019-Jul-25 03:30N 53°54' E 011°28'0 0.0
2019-Jul-25 03:00N 53°54' E 011°28'0 0.0
2019-Jul-25 02:00N 53°54' E 011°28'0 0.0
2019-Jul-25 01:30N 53°54' E 011°28'0 0.0
2019-Jul-25 01:00N 53°54' E 011°28'0 0.0
2019-Jul-25 00:30N 53°54' E 011°28'0 0.0
2019-Jul-25 00:00N 53°54' E 011°28'0 0.0
2019-Jul-24 23:30N 53°54' E 011°28'0 0.0
2019-Jul-24 23:00N 53°54' E 011°28'0 0.0
2019-Jul-24 22:29N 53°54' E 011°28'0 0.0
2019-Jul-24 21:59N 53°54' E 011°28'0 0.0
2019-Jul-24 21:26N 53°54' E 011°28'0 0.0
2019-Jul-24 20:56N 53°54' E 011°28'0 0.0
2019-Jul-24 20:28N 53°54' E 011°28'0 0.0
2019-Jul-24 19:59N 53°54' E 011°28'0 0.0
2019-Jul-24 19:29N 53°54' E 011°28'0 0.0
2019-Jul-24 18:58N 53°54' E 011°28'0 0.0
2019-Jul-24 18:29N 53°54' E 011°28'0 0.0
2019-Jul-24 17:57N 53°54' E 011°28'0 0.0
2019-Jul-24 17:30N 53°54' E 011°28'0 0.1
2019-Jul-24 17:00N 53°54' E 011°28'4 7.2
2019-Jul-24 16:30N 53°57' E 011°24'4 7.4
2019-Jul-24 15:58N 53°60' E 011°20'3 7.4
2019-Jul-24 15:30N 54°02' E 011°24'0 0.6
2019-Jul-24 15:00N 54°02' E 011°24'1 1.6
2019-Jul-24 14:30N 54°02' E 011°23'1 1.8
2019-Jul-24 14:00N 54°01' E 011°21'0 0.2
2019-Jul-24 13:30N 54°01' E 011°21'2 4.3
2019-Jul-24 13:00N 54°03' E 011°24'1 1.3
2019-Jul-24 12:27N 54°02' E 011°24'1 2.0
2019-Jul-24 12:00N 54°02' E 011°25'0 0.6
2019-Jul-24 11:30N 54°03' E 011°25'1 1.7
2019-Jul-24 10:56N 54°03' E 011°26'1 1.2
2019-Jul-24 10:27N 54°04' E 011°27'1 1.2
2019-Jul-24 10:00N 54°04' E 011°27'0 0.8
2019-Jul-24 09:22N 54°04' E 011°27'1 1.0
2019-Jul-24 08:50N 54°04' E 011°27'2 5.8
2019-Jul-24 08:26N 54°02' E 011°24'3 7.6
2019-Jul-24 08:00N 54°00' E 011°20'4 7.4
2019-Jul-24 07:30N 53°57' E 011°24'4 7.3
2019-Jul-24 07:00N 53°54' E 011°27'0 0.8
2019-Jul-24 06:30N 53°54' E 011°27'6 0.4
2019-Jul-23 15:39N 53°59' E 011°22'2 8.7
2019-Jul-23 15:27N 54°01' E 011°22'1 1.8
2019-Jul-23 14:59N 54°01' E 011°22'3 6.7
2019-Jul-23 14:30N 54°02' E 011°16'1 1.6
2019-Jul-23 13:45N 54°03' E 011°15'0 0.6
2019-Jul-23 13:30N 54°03' E 011°15'1 1.3
2019-Jul-23 12:58N 54°02' E 011°14'1 1.8
2019-Jul-23 12:29N 54°02' E 011°15'3 5.3
2019-Jul-23 11:59N 54°01' E 011°20'1 1.4
2019-Jul-23 11:30N 54°01' E 011°20'0 0.8
2019-Jul-23 10:56N 54°00' E 011°20'1 1.6
2019-Jul-23 10:30N 53°60' E 011°19'0 0.2
2019-Jul-23 09:56N 53°60' E 011°19'0 0.7
2019-Jul-23 09:30N 54°00' E 011°19'0 0.9
2019-Jul-23 09:00N 53°60' E 011°19'1 1.9
2019-Jul-23 08:30N 53°59' E 011°21'1 1.4
2019-Jul-23 08:00N 53°59' E 011°20'1 1.2
2019-Jul-23 07:30N 53°58' E 011°20'0 0.1
2019-Jul-23 07:00N 53°58' E 011°20'3 6.9
2019-Jul-23 06:30N 53°57' E 011°25'3 6.1
2019-Jul-23 06:00N 53°54' E 011°27'  
Track history (hours):
 
Tides and Currents Weather Stations Pressure Air Temp Water Temp Dewpoint Dewpoint Depression Visibility Wind Speed Wind Dir Waves Ship Positions

Oceanographic research ship Clupea (Germany) (Germany)

Detailed information on ship capabilities available from University of Delaware's Ocean Information Center.

Last reported at 2019-Jul-26 09:00 UTC. Time now 2019-Aug-24 23:11 UTC.
Position N 54°04' E 011°19'.
Warning: this ship's position is 29 days out of date.

Length 17.6 m; beam 5.1 m; draft 2 m.

Type: Dredging. MMSI: 211586760.

Date/timePositionNaut miles runAvg speedWind from/ knotsBaromVisibWave heightAir tempDewpointWater temp
2019-Jul-26 09:00N 54°04' E 011°19'3 5.3
2019-Jul-26 08:30N 54°03' E 011°15'0 0.8
2019-Jul-26 07:58N 54°02' E 011°14'3 3.8
2019-Jul-26 07:18N 54°02' E 011°19'2 8.4
2019-Jul-26 07:00N 53°60' E 011°20'4 8.1
2019-Jul-26 06:30N 53°57' E 011°25'3 6.1
2019-Jul-26 06:00N 53°54' E 011°27'0 0.0
2019-Jul-26 05:30N 53°54' E 011°27'0 0.0
2019-Jul-26 05:00N 53°54' E 011°27'0 0.0
2019-Jul-26 04:29N 53°54' E 011°27'0 0.0
2019-Jul-26 03:56N 53°54' E 011°27'0 0.0
2019-Jul-26 03:30N 53°54' E 011°27'0 0.0
2019-Jul-26 03:00N 53°54' E 011°27'0 0.0
2019-Jul-26 02:00N 53°54' E 011°27'0 0.0
2019-Jul-26 01:29N 53°54' E 011°27'0 0.0
2019-Jul-26 01:00N 53°54' E 011°27'0 0.0
2019-Jul-26 00:30N 53°54' E 011°27'0 0.0
2019-Jul-26 00:00N 53°54' E 011°27'0 0.0
2019-Jul-25 23:30N 53°54' E 011°27'0 0.0
2019-Jul-25 23:00N 53°54' E 011°27'0 0.0
2019-Jul-25 22:30N 53°54' E 011°27'0 0.0
2019-Jul-25 22:00N 53°54' E 011°27'0 0.0
2019-Jul-25 21:27N 53°54' E 011°27'0 0.0
2019-Jul-25 20:57N 53°54' E 011°27'0 0.0
2019-Jul-25 20:30N 53°54' E 011°27'0 0.0
2019-Jul-25 20:00N 53°54' E 011°27'0 0.0
2019-Jul-25 19:30N 53°54' E 011°27'0 0.0
2019-Jul-25 19:00N 53°54' E 011°27'0 0.0
2019-Jul-25 18:23N 53°54' E 011°27'0 0.0
2019-Jul-25 17:44N 53°54' E 011°27'0 0.0
2019-Jul-25 17:30N 53°54' E 011°27'0 0.7
2019-Jul-25 17:00N 53°54' E 011°27'3 5.5
2019-Jul-25 16:30N 53°56' E 011°25'5 7.4
2019-Jul-25 15:53N 54°01' E 011°22'4 9.4
2019-Jul-25 15:29N 54°04' E 011°26'0 0.8
2019-Jul-25 15:00N 54°04' E 011°27'1 2.3
2019-Jul-25 14:30N 54°03' E 011°25'1 2.3
2019-Jul-25 14:00N 54°02' E 011°24'0 1.0
2019-Jul-25 13:30N 54°02' E 011°23'1 1.6
2019-Jul-25 13:00N 54°01' E 011°22'0 1.0
2019-Jul-25 12:30N 54°01' E 011°21'0 0.6
2019-Jul-25 12:00N 54°01' E 011°21'1 1.6
2019-Jul-25 11:30N 54°01' E 011°20'1 1.0
2019-Jul-25 11:00N 54°01' E 011°20'1 1.3
2019-Jul-25 10:30N 54°00' E 011°20'1 1.4
2019-Jul-25 09:59N 53°60' E 011°19'1 2.5
2019-Jul-25 09:30N 53°59' E 011°20'0 0.6
2019-Jul-25 09:00N 53°59' E 011°20'3 5.4
2019-Jul-25 08:30N 53°57' E 011°24'4 7.9
2019-Jul-25 08:00N 53°54' E 011°27'0 0.1
2019-Jul-25 07:30N 53°54' E 011°28'0 0.0
2019-Jul-25 07:00N 53°54' E 011°28'0 0.0
2019-Jul-25 06:30N 53°54' E 011°28'0 0.0
2019-Jul-25 06:00N 53°54' E 011°28'0 0.0
2019-Jul-25 05:30N 53°54' E 011°28'0 0.0
2019-Jul-25 05:00N 53°54' E 011°28'0 0.0
2019-Jul-25 04:30N 53°54' E 011°28'0 0.0
2019-Jul-25 04:00N 53°54' E 011°28'0 0.0
2019-Jul-25 03:30N 53°54' E 011°28'0 0.0
2019-Jul-25 03:00N 53°54' E 011°28'0 0.0
2019-Jul-25 02:00N 53°54' E 011°28'0 0.0
2019-Jul-25 01:30N 53°54' E 011°28'0 0.0
2019-Jul-25 01:00N 53°54' E 011°28'0 0.0
2019-Jul-25 00:30N 53°54' E 011°28'0 0.0
2019-Jul-25 00:00N 53°54' E 011°28'0 0.0
2019-Jul-24 23:30N 53°54' E 011°28'0 0.0
2019-Jul-24 23:00N 53°54' E 011°28'0 0.0
2019-Jul-24 22:29N 53°54' E 011°28'0 0.0
2019-Jul-24 21:59N 53°54' E 011°28'0 0.0
2019-Jul-24 21:26N 53°54' E 011°28'0 0.0
2019-Jul-24 20:56N 53°54' E 011°28'0 0.0
2019-Jul-24 20:28N 53°54' E 011°28'0 0.0
2019-Jul-24 19:59N 53°54' E 011°28'0 0.0
2019-Jul-24 19:29N 53°54' E 011°28'0 0.0
2019-Jul-24 18:58N 53°54' E 011°28'0 0.0
2019-Jul-24 18:29N 53°54' E 011°28'0 0.0
2019-Jul-24 17:57N 53°54' E 011°28'0 0.0
2019-Jul-24 17:30N 53°54' E 011°28'0 0.1
2019-Jul-24 17:00N 53°54' E 011°28'4 7.2
2019-Jul-24 16:30N 53°57' E 011°24'4 7.4
2019-Jul-24 15:58N 53°60' E 011°20'3 7.4
2019-Jul-24 15:30N 54°02' E 011°24'0 0.6
2019-Jul-24 15:00N 54°02' E 011°24'1 1.6
2019-Jul-24 14:30N 54°02' E 011°23'1 1.8
2019-Jul-24 14:00N 54°01' E 011°21'0 0.2
2019-Jul-24 13:30N 54°01' E 011°21'2 4.3
2019-Jul-24 13:00N 54°03' E 011°24'1 1.3
2019-Jul-24 12:27N 54°02' E 011°24'1 2.0
2019-Jul-24 12:00N 54°02' E 011°25'0 0.6
2019-Jul-24 11:30N 54°03' E 011°25'1 1.7
2019-Jul-24 10:56N 54°03' E 011°26'1 1.2
2019-Jul-24 10:27N 54°04' E 011°27'1 1.2
2019-Jul-24 10:00N 54°04' E 011°27'0 0.8
2019-Jul-24 09:22N 54°04' E 011°27'1 1.0
2019-Jul-24 08:50N 54°04' E 011°27'2 5.8
2019-Jul-24 08:26N 54°02' E 011°24'3 7.6
2019-Jul-24 08:00N 54°00' E 011°20'4 7.4
2019-Jul-24 07:30N 53°57' E 011°24'4 7.3
2019-Jul-24 07:00N 53°54' E 011°27'0 0.8
2019-Jul-24 06:30N 53°54' E 011°27'6 0.4
2019-Jul-23 15:39N 53°59' E 011°22'2 8.7
2019-Jul-23 15:27N 54°01' E 011°22'1 1.8
2019-Jul-23 14:59N 54°01' E 011°22'3 6.7
2019-Jul-23 14:30N 54°02' E 011°16'1 1.6
2019-Jul-23 13:45N 54°03' E 011°15'0 0.6
2019-Jul-23 13:30N 54°03' E 011°15'1 1.3
2019-Jul-23 12:58N 54°02' E 011°14'1 1.8
2019-Jul-23 12:29N 54°02' E 011°15'3 5.3
2019-Jul-23 11:59N 54°01' E 011°20'1 1.4
2019-Jul-23 11:30N 54°01' E 011°20'0 0.8
2019-Jul-23 10:56N 54°00' E 011°20'1 1.6
2019-Jul-23 10:30N 53°60' E 011°19'0 0.2
2019-Jul-23 09:56N 53°60' E 011°19'0 0.7
2019-Jul-23 09:30N 54°00' E 011°19'0 0.9
2019-Jul-23 09:00N 53°60' E 011°19'1 1.9
2019-Jul-23 08:30N 53°59' E 011°21'1 1.4
2019-Jul-23 08:00N 53°59' E 011°20'1 1.2
2019-Jul-23 07:30N 53°58' E 011°20'0 0.1
2019-Jul-23 07:00N 53°58' E 011°20'3 6.9
2019-Jul-23 06:30N 53°57' E 011°25'3 6.1
2019-Jul-23 06:00N 53°54' E 011°27'  

Dump ship's entire track history